createdAt,value
2022-08-25T00:00:23.074Z,13.05
2022-08-25T00:03:08.209Z,11.55
2022-08-25T00:05:37.942Z,15.45
2022-08-25T00:08:09.933Z,14.27
2022-08-25T00:10:41.690Z,14.95
2022-08-25T00:13:11.431Z,8.05
2022-08-25T00:18:11.526Z,13.73
2022-08-25T00:20:49.842Z,11.48
2022-08-25T00:23:20.953Z,9.95
2022-08-25T00:25:50.937Z,14.23
2022-08-25T00:28:20.346Z,12.35
2022-08-25T00:30:50.101Z,11.07
2022-08-25T00:35:50.296Z,14.27
2022-08-25T00:38:21.519Z,15.43
2022-08-25T00:41:05.892Z,11.48
2022-08-25T00:43:38.522Z,12.90
2022-08-25T00:46:08.903Z,10.18
2022-08-25T00:48:40.410Z,11.60
2022-08-25T00:51:14.761Z,12.35
2022-08-25T00:53:45.945Z,12.57
2022-08-25T00:56:16.264Z,8.52
2022-08-25T00:58:48.414Z,12.80
2022-08-25T01:01:18.022Z,9.95
2022-08-25T01:03:47.580Z,13.38
2022-08-25T01:06:16.943Z,9.52
2022-08-25T01:08:48.465Z,10.93
2022-08-25T01:11:17.977Z,10.63
2022-08-25T01:13:55.388Z,13.82
2022-08-25T01:16:26.370Z,11.00
2022-08-25T01:19:00.574Z,10.07
2022-08-25T01:21:34.526Z,11.38
2022-08-25T01:24:04.517Z,10.63
2022-08-25T01:29:22.817Z,13.18
2022-08-25T01:31:55.950Z,9.55
2022-08-25T01:34:26.897Z,19.88
2022-08-25T01:36:59.287Z,12.00
2022-08-25T01:39:31.100Z,10.02
2022-08-25T01:42:20.623Z,13.27
2022-08-25T01:44:50.577Z,13.13
2022-08-25T01:47:20.185Z,17.30
2022-08-25T01:49:49.541Z,13.82
2022-08-25T01:52:25.723Z,11.18
2022-08-25T01:54:55.064Z,17.80
2022-08-25T01:57:24.625Z,15.38
2022-08-25T01:59:54.896Z,8.82
2022-08-25T02:02:24.221Z,10.27
2022-08-25T02:04:56.602Z,16.50
2022-08-25T02:07:27.406Z,12.57
2022-08-25T02:09:57.155Z,10.60
2022-08-25T02:12:31.946Z,14.45
2022-08-25T02:15:02.806Z,11.68
2022-08-25T02:17:32.924Z,13.68
2022-08-25T02:20:02.502Z,14.50
2022-08-25T02:25:02.678Z,14.60
2022-08-25T02:27:32.264Z,13.15
2022-08-25T02:30:01.551Z,8.82
2022-08-25T02:32:31.335Z,15.38
2022-08-25T02:35:01.050Z,10.95
2022-08-25T02:37:30.460Z,12.48
2022-08-25T02:40:01.312Z,17.63
2022-08-25T02:42:31.366Z,14.38
2022-08-25T02:45:00.640Z,12.70
2022-08-25T02:47:31.954Z,14.23
2022-08-25T02:50:01.513Z,13.48
2022-08-25T02:52:31.231Z,14.75
2022-08-25T02:57:33.853Z,13.35
2022-08-25T03:00:03.471Z,17.50
2022-08-25T03:02:32.815Z,12.55
2022-08-25T03:05:02.478Z,16.85
2022-08-25T03:07:31.892Z,14.43
2022-08-25T03:10:10.529Z,17.73
2022-08-25T03:12:41.658Z,13.38
2022-08-25T03:15:12.854Z,13.35
2022-08-25T03:17:43.822Z,18.60
2022-08-25T03:20:15.462Z,16.65
2022-08-25T03:22:44.949Z,15.85
2022-08-25T03:25:33.225Z,17.10
2022-08-25T03:28:03.970Z,18.23
2022-08-25T03:30:33.526Z,12.48
2022-08-25T03:33:02.823Z,12.88
2022-08-25T03:35:32.450Z,16.20
2022-08-25T03:38:02.682Z,14.45
2022-08-25T03:40:33.569Z,18.20
2022-08-25T03:43:03.795Z,16.38
2022-08-25T03:48:02.370Z,14.98
2022-08-25T03:50:31.948Z,16.05
2022-08-25T03:53:01.250Z,14.55
2022-08-25T03:55:32.579Z,9.98
2022-08-25T03:58:02.378Z,12.02
2022-08-25T04:00:31.789Z,10.02
2022-08-25T04:03:01.331Z,17.75
2022-08-25T04:05:30.935Z,12.55
2022-08-25T04:08:02.694Z,12.38
2022-08-25T04:13:03.626Z,14.88
2022-08-25T04:15:33.206Z,12.25
2022-08-25T04:18:02.536Z,11.75
2022-08-25T04:20:31.832Z,14.82
2022-08-25T04:23:01.712Z,14.02
2022-08-25T04:25:31.487Z,15.20
2022-08-25T04:28:02.321Z,14.15
2022-08-25T04:30:31.873Z,15.68
2022-08-25T04:33:03.336Z,12.70
2022-08-25T04:35:32.932Z,12.55
2022-08-25T04:38:02.807Z,17.30
2022-08-25T04:40:33.241Z,12.88
2022-08-25T04:43:04.231Z,14.43
2022-08-25T04:45:33.601Z,13.48
2022-08-25T04:48:02.902Z,17.42
2022-08-25T04:50:32.596Z,14.38
2022-08-25T04:55:31.845Z,11.15
2022-08-25T04:58:01.597Z,12.40
2022-08-25T05:00:32.421Z,10.50
2022-08-25T05:03:01.677Z,16.70
2022-08-25T05:08:03.715Z,12.38
2022-08-25T05:10:33.802Z,15.40
2022-08-25T05:13:03.191Z,12.50
2022-08-25T05:15:52.581Z,14.82
2022-08-25T05:18:26.494Z,15.77
2022-08-25T05:20:56.863Z,14.80
2022-08-25T05:23:27.040Z,20.52
2022-08-25T05:28:25.974Z,16.60
2022-08-25T05:31:00.688Z,16.55
2022-08-25T05:33:32.147Z,14.35
2022-08-25T05:36:02.298Z,17.15
2022-08-25T05:38:31.621Z,13.13
2022-08-25T05:41:03.487Z,11.02
2022-08-25T05:43:33.213Z,16.17
2022-08-25T05:46:04.144Z,17.33
2022-08-25T05:48:33.776Z,12.27
2022-08-25T05:51:05.366Z,12.57
2022-08-25T05:53:35.741Z,12.35
2022-08-25T05:56:06.135Z,14.63
2022-08-25T05:58:36.371Z,12.60
2022-08-25T06:03:50.991Z,17.52
2022-08-25T06:06:20.746Z,16.17
2022-08-25T06:08:50.079Z,10.02
2022-08-25T06:11:20.315Z,18.48
2022-08-25T06:13:50.087Z,12.15
2022-08-25T06:16:20.844Z,15.43
2022-08-25T06:18:50.641Z,11.23
2022-08-25T06:21:19.965Z,14.95
2022-08-25T06:23:50.371Z,13.50
2022-08-25T06:26:22.597Z,16.35
2022-08-25T06:28:54.652Z,15.75
2022-08-25T06:31:25.687Z,14.13
2022-08-25T06:33:55.085Z,15.10
2022-08-25T06:36:24.688Z,17.75
2022-08-25T06:38:54.703Z,14.52
2022-08-25T06:41:25.375Z,15.93
2022-08-25T06:44:07.119Z,13.57
2022-08-25T06:49:08.167Z,10.75
2022-08-25T06:51:37.766Z,19.02
2022-08-25T06:54:10.115Z,16.35
2022-08-25T06:56:40.785Z,15.10
2022-08-25T06:59:11.573Z,14.98
2022-08-25T07:01:42.698Z,20.52
2022-08-25T07:04:13.057Z,18.60
2022-08-25T07:06:43.051Z,18.45
2022-08-25T07:09:13.768Z,19.88
2022-08-25T07:11:46.539Z,15.88
2022-08-25T07:14:17.346Z,16.08
2022-08-25T07:16:50.369Z,19.55
2022-08-25T07:19:21.531Z,13.93
2022-08-25T07:21:54.222Z,19.00
2022-08-25T07:24:24.635Z,17.40
2022-08-25T07:26:54.316Z,14.52
2022-08-25T07:29:31.624Z,16.52
2022-08-25T07:32:05.086Z,17.57
2022-08-25T07:34:52.823Z,20.88
2022-08-25T07:37:50.301Z,12.65
2022-08-25T07:40:26.655Z,10.82
2022-08-25T07:42:58.934Z,24.98
2022-08-25T07:45:31.771Z,20.10
2022-08-25T07:48:05.405Z,16.83
2022-08-25T07:50:38.804Z,19.48
2022-08-25T07:53:08.869Z,19.23
2022-08-25T07:55:38.800Z,15.70
2022-08-25T07:58:10.878Z,14.77
2022-08-25T08:00:42.294Z,19.88
2022-08-25T08:06:03.026Z,16.75
2022-08-25T08:08:33.465Z,15.18
2022-08-25T08:13:39.327Z,18.88
2022-08-25T08:16:11.734Z,11.93
2022-08-25T08:18:44.818Z,19.58
2022-08-25T08:21:19.231Z,18.92
2022-08-25T08:23:50.338Z,23.38
2022-08-25T08:26:20.586Z,21.67
2022-08-25T08:28:51.930Z,20.00
2022-08-25T08:31:24.181Z,17.70
2022-08-25T08:33:58.639Z,16.10
2022-08-25T08:36:28.635Z,14.43
2022-08-25T08:38:59.407Z,19.83
2022-08-25T08:42:11.255Z,20.35
2022-08-25T08:44:58.088Z,21.65
2022-08-25T08:47:52.811Z,22.90
2022-08-25T08:50:33.781Z,19.67
2022-08-25T08:53:11.905Z,20.92
2022-08-25T08:55:44.272Z,26.67
2022-08-25T08:58:19.379Z,29.23
2022-08-25T09:00:52.588Z,16.58
2022-08-25T09:03:32.979Z,21.08
2022-08-25T09:08:39.274Z,19.92
2022-08-25T09:11:24.945Z,27.85
2022-08-25T09:14:11.234Z,26.17
2022-08-25T09:16:57.150Z,28.63
2022-08-25T09:19:48.421Z,27.90
2022-08-25T09:22:35.053Z,32.22
2022-08-25T09:25:18.779Z,23.92
2022-08-25T09:28:06.313Z,28.75
2022-08-25T09:30:48.692Z,32.38
2022-08-25T09:33:23.444Z,29.65
2022-08-25T09:35:57.421Z,31.75
2022-08-25T09:38:30.934Z,29.65
2022-08-25T09:41:02.635Z,31.10
2022-08-25T09:43:35.723Z,26.52
2022-08-25T09:46:12.396Z,27.02
2022-08-25T09:48:48.419Z,32.35
2022-08-25T09:51:42.228Z,37.97
2022-08-25T09:54:25.386Z,28.95
2022-08-25T09:57:05.542Z,29.45
2022-08-25T09:59:39.050Z,29.02
2022-08-25T10:02:26.707Z,32.33
2022-08-25T10:04:57.190Z,27.17
2022-08-25T10:07:33.784Z,30.30
2022-08-25T10:10:07.782Z,27.98
2022-08-25T10:12:43.198Z,31.33
2022-08-25T10:15:29.441Z,28.30
2022-08-25T10:18:25.717Z,29.90
2022-08-25T10:21:10.155Z,26.42
2022-08-25T10:23:44.883Z,29.02
2022-08-25T10:26:25.658Z,26.38
2022-08-25T10:29:07.648Z,25.13
2022-08-25T10:31:49.158Z,29.90
2022-08-25T10:34:31.339Z,33.30
2022-08-25T10:37:12.375Z,24.98
2022-08-25T10:40:02.821Z,31.40
2022-08-25T10:42:40.651Z,25.30
2022-08-25T10:45:38.489Z,24.90
2022-08-25T10:48:31.918Z,27.38
2022-08-25T10:51:09.129Z,27.38
2022-08-25T10:53:51.825Z,24.05
2022-08-25T10:56:25.912Z,33.05
2022-08-25T10:59:22.297Z,26.83
2022-08-25T11:02:29.663Z,23.70
2022-08-25T11:05:04.336Z,18.70
2022-08-25T11:07:38.370Z,19.10
2022-08-25T11:10:14.723Z,22.90
2022-08-25T11:12:46.987Z,25.50
2022-08-25T11:15:21.387Z,25.55
2022-08-25T11:17:58.760Z,29.27
2022-08-25T11:20:34.628Z,26.25
2022-08-25T11:23:13.683Z,26.08
2022-08-25T11:25:45.930Z,22.75
2022-08-25T11:28:23.134Z,23.08
2022-08-25T11:30:57.321Z,28.08
2022-08-25T11:33:31.114Z,21.83
2022-08-25T11:36:03.791Z,22.77
2022-08-25T11:38:47.890Z,21.27
2022-08-25T11:41:28.236Z,23.60
2022-08-25T11:44:31.487Z,22.15
2022-08-25T11:47:21.617Z,24.10
2022-08-25T11:50:02.085Z,22.83
2022-08-25T11:52:51.099Z,20.52
2022-08-25T11:55:24.343Z,28.67
2022-08-25T11:58:14.971Z,22.17
2022-08-25T12:00:46.606Z,25.45
2022-08-25T12:03:52.185Z,22.48
2022-08-25T12:06:28.365Z,24.23
2022-08-25T12:09:20.613Z,30.08
2022-08-25T12:11:58.088Z,26.48
2022-08-25T12:14:45.849Z,23.27
2022-08-25T12:17:29.624Z,19.50
2022-08-25T12:20:01.278Z,21.95
2022-08-25T12:22:57.117Z,22.85
2022-08-25T12:25:43.737Z,29.63
2022-08-25T12:28:35.502Z,24.17
2022-08-25T12:31:17.286Z,24.40
2022-08-25T12:34:02.383Z,24.88
2022-08-25T12:36:34.202Z,27.60
2022-08-25T12:39:24.219Z,23.02
2022-08-25T12:41:59.237Z,22.33
2022-08-25T12:44:40.938Z,20.63
2022-08-25T12:47:28.330Z,27.10
2022-08-25T12:50:33.537Z,31.60
2022-08-25T12:53:16.364Z,26.00
2022-08-25T12:55:55.499Z,26.80
2022-08-25T12:58:43.725Z,27.60
2022-08-25T13:01:36.139Z,28.90
2022-08-25T13:04:25.326Z,28.98
2022-08-25T13:07:27.899Z,25.02
2022-08-25T13:10:25.503Z,31.95
2022-08-25T13:13:05.903Z,29.02
2022-08-25T13:15:44.416Z,30.90
2022-08-25T13:18:23.808Z,31.43
2022-08-25T13:20:57.044Z,28.30
2022-08-25T13:23:30.231Z,29.45
2022-08-25T13:26:00.027Z,36.85
2022-08-25T13:28:34.703Z,26.00
2022-08-25T13:31:08.265Z,29.70
2022-08-25T13:33:38.595Z,24.10
2022-08-25T13:36:34.881Z,33.85
2022-08-25T13:39:15.214Z,28.00
2022-08-25T13:41:50.106Z,29.73
2022-08-25T13:44:29.517Z,25.40
2022-08-25T13:47:10.129Z,25.95
2022-08-25T13:49:41.033Z,25.30
2022-08-25T13:52:19.289Z,29.42
2022-08-25T13:55:01.194Z,26.95
2022-08-25T13:57:34.564Z,24.92
2022-08-25T14:00:09.462Z,26.90
2022-08-25T14:02:44.203Z,26.73
2022-08-25T14:05:17.423Z,25.17
2022-08-25T14:08:03.869Z,24.45
2022-08-25T14:10:46.708Z,21.30
2022-08-25T14:13:18.972Z,26.33
2022-08-25T14:15:50.029Z,22.20
2022-08-25T14:18:27.082Z,22.10
2022-08-25T14:20:58.884Z,28.63
2022-08-25T14:23:30.426Z,26.52
2022-08-25T14:26:00.839Z,29.08
2022-08-25T14:28:31.923Z,33.15
2022-08-25T14:31:06.686Z,30.85
2022-08-25T14:33:39.740Z,26.73
2022-08-25T14:36:10.344Z,28.40
2022-08-25T14:38:41.281Z,28.65
2022-08-25T14:41:14.012Z,29.23
2022-08-25T14:43:45.330Z,29.48
2022-08-25T14:46:21.966Z,24.38
2022-08-25T14:48:56.622Z,29.92
2022-08-25T14:51:28.410Z,29.50
2022-08-25T14:54:02.585Z,25.65
2022-08-25T14:56:32.554Z,29.17
2022-08-25T14:59:02.399Z,34.15
2022-08-25T15:01:36.002Z,31.02
2022-08-25T15:04:10.036Z,33.42
2022-08-25T15:06:43.754Z,29.17
2022-08-25T15:09:16.311Z,25.30
2022-08-25T15:11:48.324Z,27.20
2022-08-25T15:14:29.131Z,28.50
2022-08-25T15:17:06.767Z,33.85
2022-08-25T15:19:36.683Z,34.35
2022-08-25T15:22:06.710Z,29.75
2022-08-25T15:24:37.971Z,31.45
2022-08-25T15:27:09.988Z,31.58
2022-08-25T15:29:40.906Z,30.50
2022-08-25T15:32:12.486Z,26.02
2022-08-25T15:34:41.787Z,30.17
2022-08-25T15:37:14.646Z,29.73
2022-08-25T15:39:45.184Z,33.35
2022-08-25T15:42:15.360Z,27.15
2022-08-25T15:44:53.110Z,28.42
2022-08-25T15:47:25.464Z,28.17
2022-08-25T15:50:04.958Z,30.33
2022-08-25T15:52:45.905Z,32.40
2022-08-25T15:55:18.172Z,26.63
2022-08-25T15:57:49.896Z,33.22
2022-08-25T16:02:52.475Z,25.80
2022-08-25T16:05:25.739Z,26.80
2022-08-25T16:07:55.706Z,30.02
2022-08-25T16:10:25.113Z,32.20
2022-08-25T16:12:54.481Z,26.35
2022-08-25T16:15:28.631Z,28.85
2022-08-25T16:18:01.291Z,21.58
2022-08-25T16:20:31.757Z,28.38
2022-08-25T16:23:03.860Z,23.42
2022-08-25T16:25:33.805Z,27.10
2022-08-25T16:28:05.917Z,23.67
2022-08-25T16:30:35.641Z,25.13
2022-08-25T16:33:06.755Z,21.77
2022-08-25T16:35:36.866Z,20.35
2022-08-25T16:38:10.161Z,23.77
2022-08-25T16:40:43.347Z,24.88
2022-08-25T16:43:13.345Z,22.58
2022-08-25T16:45:42.884Z,23.58
2022-08-25T16:48:13.540Z,31.15
2022-08-25T16:50:42.839Z,30.55
2022-08-25T16:53:32.592Z,29.13
2022-08-25T16:56:07.525Z,28.38
2022-08-25T16:58:38.583Z,27.80
2022-08-25T17:01:11.435Z,29.40
2022-08-25T17:03:43.968Z,23.90
2022-08-25T17:06:14.262Z,31.35
2022-08-25T17:08:44.717Z,30.20
2022-08-25T17:11:15.919Z,30.20
2022-08-25T17:13:47.816Z,23.42
2022-08-25T17:16:21.560Z,29.33
2022-08-25T17:18:52.489Z,31.73
2022-08-25T17:21:26.867Z,25.75
2022-08-25T17:23:57.901Z,28.23
2022-08-25T17:26:29.065Z,27.92
2022-08-25T17:28:59.622Z,24.95
2022-08-25T17:31:30.942Z,27.77
2022-08-25T17:34:02.073Z,24.77
2022-08-25T17:36:31.384Z,34.60
2022-08-25T17:39:01.432Z,29.13
2022-08-25T17:41:31.288Z,28.38
2022-08-25T17:46:30.815Z,29.13
2022-08-25T17:51:31.776Z,25.40
2022-08-25T17:54:01.582Z,27.25
2022-08-25T17:56:33.424Z,32.13
2022-08-25T17:59:02.980Z,29.95
2022-08-25T18:01:35.358Z,34.47
2022-08-25T18:04:17.680Z,41.00
2022-08-25T18:06:49.371Z,35.58
2022-08-25T18:09:19.162Z,26.17
2022-08-25T18:11:48.590Z,36.08
2022-08-25T18:14:21.192Z,40.55
2022-08-25T18:16:54.005Z,35.15
2022-08-25T18:19:24.980Z,25.67
2022-08-25T18:21:54.490Z,30.05
2022-08-25T18:24:23.843Z,25.98
2022-08-25T18:26:53.167Z,30.05
2022-08-25T18:29:22.813Z,37.88
2022-08-25T18:31:53.670Z,32.22
2022-08-25T18:34:27.269Z,36.45
2022-08-25T18:37:20.112Z,24.85
2022-08-25T18:42:36.881Z,31.98
2022-08-25T18:45:08.106Z,35.65
2022-08-25T18:47:41.880Z,30.13
2022-08-25T18:50:13.650Z,30.75
2022-08-25T18:52:44.119Z,36.65
2022-08-25T18:57:43.518Z,29.30
2022-08-25T19:00:17.053Z,30.27
2022-08-25T19:02:47.563Z,27.77
2022-08-25T19:05:20.467Z,35.22
2022-08-25T19:07:51.786Z,33.92
2022-08-25T19:10:24.047Z,31.95
2022-08-25T19:12:55.558Z,30.60
2022-08-25T19:15:27.190Z,27.02
2022-08-25T19:17:59.874Z,30.55
2022-08-25T19:20:31.215Z,28.40
2022-08-25T19:23:01.189Z,31.77
2022-08-25T19:25:33.044Z,31.48
2022-08-25T19:28:08.369Z,29.70
2022-08-25T19:30:43.718Z,33.55
2022-08-25T19:33:37.709Z,27.80
2022-08-25T19:36:11.962Z,36.05
2022-08-25T19:38:44.033Z,32.45
2022-08-25T19:41:15.080Z,31.45
2022-08-25T19:43:56.781Z,32.03
2022-08-25T19:46:35.387Z,32.80
2022-08-25T19:49:09.005Z,35.85
2022-08-25T19:51:44.344Z,35.72
2022-08-25T19:54:16.220Z,28.88
2022-08-25T19:56:54.875Z,30.45
2022-08-25T19:59:42.315Z,33.95
2022-08-25T20:02:17.106Z,40.72
2022-08-25T20:04:49.308Z,34.22
2022-08-25T20:07:22.860Z,34.65
2022-08-25T20:09:54.587Z,29.48
2022-08-25T20:12:25.244Z,32.55
2022-08-25T20:14:56.488Z,32.10
2022-08-25T20:20:00.741Z,28.60
2022-08-25T20:22:33.959Z,29.95
2022-08-25T20:25:13.158Z,31.25
2022-08-25T20:27:45.339Z,32.13
2022-08-25T20:30:18.178Z,30.13
2022-08-25T20:32:47.561Z,28.88
2022-08-25T20:35:18.218Z,33.38
2022-08-25T20:37:49.780Z,31.25
2022-08-25T20:40:25.753Z,27.63
2022-08-25T20:42:55.723Z,29.63
2022-08-25T20:45:25.586Z,28.00
2022-08-25T20:47:54.896Z,27.30
2022-08-25T20:52:57.636Z,30.52
2022-08-25T20:55:27.777Z,29.63
2022-08-25T20:57:58.388Z,27.70
2022-08-25T21:00:27.682Z,32.42
2022-08-25T21:02:56.984Z,26.52
2022-08-25T21:05:26.571Z,24.60
2022-08-25T21:07:57.245Z,29.45
2022-08-25T21:10:26.829Z,33.00
2022-08-25T21:12:56.311Z,24.65
2022-08-25T21:15:26.329Z,28.20
2022-08-25T21:17:56.732Z,32.72
2022-08-25T21:20:27.078Z,23.42
2022-08-25T21:22:57.833Z,30.25
2022-08-25T21:25:27.337Z,21.08
2022-08-25T21:27:56.686Z,22.08
2022-08-25T21:30:27.217Z,28.63
2022-08-25T21:32:58.163Z,24.15
2022-08-25T21:35:27.882Z,28.08
2022-08-25T21:38:00.149Z,31.25
2022-08-25T21:40:29.503Z,29.38
2022-08-25T21:42:58.765Z,29.05
2022-08-25T21:45:28.280Z,26.75
2022-08-25T21:48:05.898Z,28.20
2022-08-25T21:50:35.594Z,26.00
2022-08-25T21:53:06.472Z,26.63
2022-08-25T21:55:41.912Z,25.67
2022-08-25T21:58:11.369Z,28.88
2022-08-25T22:00:40.918Z,26.65
2022-08-25T22:03:10.189Z,24.80
2022-08-25T22:05:39.569Z,21.40
2022-08-25T22:08:11.560Z,27.60
2022-08-25T22:10:44.839Z,26.85
2022-08-25T22:13:14.334Z,26.10
2022-08-25T22:15:43.660Z,29.45
2022-08-25T22:18:12.958Z,26.80
2022-08-25T22:20:42.617Z,32.40
2022-08-25T22:23:20.148Z,25.30
2022-08-25T22:25:50.072Z,27.73
2022-08-25T22:28:20.871Z,25.08
2022-08-25T22:30:51.166Z,26.05
2022-08-25T22:33:20.466Z,28.77
2022-08-25T22:35:53.163Z,28.63
2022-08-25T22:38:31.577Z,31.85
2022-08-25T22:41:03.612Z,29.83
2022-08-25T22:43:33.076Z,25.35
2022-08-25T22:46:03.666Z,24.30
2022-08-25T22:48:33.008Z,28.80
2022-08-25T22:51:09.604Z,29.85
2022-08-25T22:53:42.313Z,27.67
2022-08-25T22:56:13.361Z,24.90
2022-08-25T22:58:52.158Z,30.02
2022-08-25T23:01:22.853Z,31.75
2022-08-25T23:03:52.587Z,27.67
2022-08-25T23:06:25.223Z,30.35
2022-08-25T23:08:57.644Z,31.67
2022-08-25T23:11:27.097Z,28.35
2022-08-25T23:14:02.193Z,27.30
2022-08-25T23:16:31.770Z,31.30
2022-08-25T23:19:01.801Z,27.23
2022-08-25T23:21:49.200Z,37.03
2022-08-25T23:24:29.135Z,22.73
2022-08-25T23:27:00.993Z,30.02
2022-08-25T23:29:31.156Z,30.25
2022-08-25T23:32:00.443Z,26.20
2022-08-25T23:34:30.776Z,22.83
2022-08-25T23:37:04.308Z,26.10
2022-08-25T23:39:34.976Z,30.75
2022-08-25T23:42:09.552Z,26.65
2022-08-25T23:47:08.020Z,32.63
2022-08-25T23:49:41.587Z,26.42
2022-08-25T23:52:10.945Z,34.97
2022-08-25T23:54:41.643Z,32.53
2022-08-25T23:57:11.186Z,33.40
2022-08-25T23:59:40.901Z,26.95
